createdAt,value
2023-01-10T04:04:17.642Z,98923.41
2023-01-10T04:07:28.274Z,98923.00
2023-01-10T04:10:38.479Z,98927.63
2023-01-10T04:13:48.813Z,98931.53
2023-01-10T04:16:58.759Z,98934.38
2023-01-10T04:20:11.272Z,98939.47
2023-01-10T04:23:21.143Z,98952.78
2023-01-10T04:26:31.170Z,98953.25
2023-01-10T04:29:41.154Z,98966.13
2023-01-10T04:32:51.541Z,98978.81
2023-01-10T04:36:03.044Z,98986.59
2023-01-10T04:39:13.341Z,98994.28
2023-01-10T04:42:23.488Z,99000.72
2023-01-10T04:45:33.477Z,99003.72
2023-01-10T04:48:43.468Z,99011.50
2023-01-10T04:51:57.465Z,99013.03
2023-01-10T04:55:07.932Z,99006.88
2023-01-10T04:58:17.971Z,99017.56
2023-01-10T05:01:28.076Z,99009.16
2023-01-10T05:04:38.043Z,99016.03
2023-01-10T05:07:49.474Z,99019.03
2023-01-10T05:10:59.414Z,99013.50
2023-01-10T05:14:09.353Z,99003.03
2023-01-10T05:17:19.236Z,98996.91
2023-01-10T05:20:29.275Z,99011.13
2023-01-10T05:23:41.415Z,99016.66
2023-01-10T05:26:51.301Z,99012.47
2023-01-10T05:30:01.276Z,99019.03
2023-01-10T05:33:11.426Z,99019.63
2023-01-10T05:36:21.418Z,99012.13
2023-01-10T05:39:32.615Z,99023.50
2023-01-10T05:42:42.953Z,99033.38
2023-01-10T05:45:53.425Z,99042.69
2023-01-10T05:49:03.422Z,99038.34
2023-01-10T05:52:13.414Z,99047.47
2023-01-10T05:55:24.585Z,99049.09
2023-01-10T05:58:34.542Z,99058.09
2023-01-10T07:41:50.493Z,99195.94
2023-01-10T07:45:00.483Z,99201.44
2023-01-10T07:48:11.198Z,99208.66
2023-01-10T07:51:21.238Z,99216.94
2023-01-10T07:54:31.222Z,99219.06
2023-01-10T07:57:42.615Z,99229.25
2023-01-10T08:00:52.808Z,99233.47
2023-01-10T08:04:03.089Z,99229.03
2023-01-10T08:07:15.592Z,99234.75
2023-01-10T08:10:26.069Z,99232.84
2023-01-10T08:13:37.497Z,99239.00
2023-01-10T08:16:47.661Z,99241.63
2023-01-10T08:19:57.609Z,99245.69
2023-01-10T08:23:07.724Z,99244.09
2023-01-10T08:26:17.807Z,99238.31
2023-01-10T08:29:29.576Z,99239.72
2023-01-10T08:32:39.991Z,99251.50
2023-01-10T08:35:50.182Z,99244.94
2023-01-10T08:39:00.292Z,99248.63
2023-01-10T08:42:10.543Z,99258.69
2023-01-10T08:45:21.839Z,99259.47
2023-01-10T08:48:31.751Z,99259.09
2023-01-10T08:51:41.681Z,99262.09
2023-01-10T08:54:51.818Z,99265.88
2023-01-10T08:58:02.099Z,99255.22
2023-01-10T09:01:14.553Z,99260.00
2023-01-10T09:04:24.523Z,99259.72
2023-01-10T09:07:34.600Z,99251.91
2023-01-10T09:10:44.716Z,99263.00
2023-01-10T09:13:54.735Z,99276.22
2023-01-10T09:17:06.024Z,99277.81
2023-01-10T09:20:16.308Z,99273.53
2023-01-10T09:23:26.353Z,99275.59
2023-01-10T09:26:36.366Z,99285.78
2023-01-10T09:29:46.216Z,99296.97
2023-01-10T09:32:58.802Z,99302.78
2023-01-10T09:36:10.341Z,99297.44
2023-01-10T09:39:21.620Z,99305.47
2023-01-10T09:42:44.552Z,99298.28
2023-01-10T09:46:02.463Z,99299.34
2023-01-10T09:49:22.003Z,99303.28
2023-01-10T09:52:35.659Z,99308.22
2023-01-10T09:55:51.233Z,99321.75
2023-01-10T09:59:03.138Z,99314.56
2023-01-10T10:02:25.719Z,99331.34
2023-01-10T10:05:37.741Z,99328.25
2023-01-10T10:08:48.767Z,99336.34
2023-01-10T10:12:11.719Z,99324.16
2023-01-10T10:15:30.168Z,99325.31
2023-01-10T10:18:50.356Z,99322.19
2023-01-10T10:22:13.496Z,99327.19
2023-01-10T10:25:41.136Z,99326.91
2023-01-10T10:29:08.475Z,99328.69
2023-01-10T10:32:32.246Z,99336.47
2023-01-10T10:35:46.538Z,99321.22
2023-01-10T10:39:00.888Z,99314.16
2023-01-10T10:42:14.524Z,99314.00
2023-01-10T10:45:30.761Z,99298.22
2023-01-10T10:48:43.639Z,99301.47
2023-01-10T10:51:55.082Z,99292.00
2023-01-10T10:55:08.624Z,99299.16
2023-01-10T10:58:19.811Z,99288.13
2023-01-10T11:01:30.189Z,99277.28
2023-01-10T11:04:41.243Z,99279.78
2023-01-10T11:07:54.244Z,99288.47
2023-01-10T11:11:16.889Z,99287.84
2023-01-10T11:14:42.483Z,99289.13
2023-01-10T11:18:05.765Z,99299.00
2023-01-10T11:21:21.256Z,99294.75
2023-01-10T11:24:34.873Z,99288.44
2023-01-10T11:27:48.988Z,99287.47
2023-01-10T11:31:00.915Z,99299.38
2023-01-10T11:34:23.337Z,99297.28
2023-01-10T11:37:35.713Z,99292.56
2023-01-10T11:40:55.873Z,99287.13
2023-01-10T11:44:19.572Z,99280.75
2023-01-10T11:47:30.002Z,99264.47
2023-01-10T11:50:50.384Z,99265.13
2023-01-10T11:54:02.239Z,99267.50
2023-01-10T11:57:19.423Z,99260.41
2023-01-10T12:00:38.020Z,99248.28
2023-01-10T12:03:48.426Z,99244.38
2023-01-10T12:07:03.256Z,99252.91
2023-01-10T12:10:21.547Z,99247.59
2023-01-10T12:13:43.656Z,99254.66
2023-01-10T12:17:02.309Z,99253.56
2023-01-10T12:20:16.161Z,99249.97
2023-01-10T12:23:26.855Z,99251.84
2023-01-10T12:26:37.565Z,99239.72
2023-01-10T12:29:55.131Z,99248.25
2023-01-10T12:33:12.730Z,99250.00
2023-01-10T12:36:33.446Z,99256.59
2023-01-10T12:39:48.195Z,99250.53
2023-01-10T12:43:14.902Z,99255.53
2023-01-10T12:47:00.115Z,99262.34
2023-01-10T12:50:07.116Z,99269.53
2023-01-10T12:53:30.331Z,99272.19
2023-01-10T12:56:41.149Z,99267.84
2023-01-10T12:59:53.104Z,99264.06
2023-01-10T13:03:07.399Z,99267.13
2023-01-10T13:06:26.133Z,99274.63
2023-01-10T13:09:36.436Z,99273.13
2023-01-10T13:12:51.760Z,99274.78
2023-01-10T13:16:18.898Z,99279.91
2023-01-10T13:19:29.452Z,99276.28
2023-01-10T13:22:40.654Z,99259.28
2023-01-10T13:25:56.971Z,99256.25
2023-01-10T13:29:13.282Z,99258.16
2023-01-10T13:32:27.786Z,99246.88
2023-01-10T13:35:42.098Z,99254.38
2023-01-10T13:38:56.225Z,99264.03
2023-01-10T13:42:36.105Z,99254.44
2023-01-10T13:45:46.104Z,99250.84
2023-01-10T13:49:23.074Z,99246.47
2023-01-10T13:52:34.395Z,99253.25
2023-01-10T13:55:57.347Z,99250.41
2023-01-10T13:59:24.568Z,99242.16
2023-01-10T14:02:34.642Z,99234.19
2023-01-10T14:05:49.479Z,99222.59
2023-01-10T14:09:02.589Z,99222.41
2023-01-10T14:12:26.402Z,99225.94
2023-01-10T14:15:40.389Z,99218.13
2023-01-10T14:18:50.799Z,99224.78
2023-01-10T14:22:03.091Z,99227.94
2023-01-10T14:25:20.159Z,99224.16
2023-01-10T14:28:34.405Z,99221.34
2023-01-10T14:31:47.202Z,99212.31
2023-01-10T14:34:57.780Z,99200.47
2023-01-10T14:38:09.865Z,99202.75
2023-01-10T14:41:25.004Z,99202.63
2023-01-10T14:44:45.833Z,99200.53
2023-01-10T14:47:55.861Z,99210.56
2023-01-10T14:51:17.348Z,99195.38
2023-01-10T14:54:29.675Z,99184.00
2023-01-10T14:57:39.840Z,99184.91
2023-01-10T15:00:52.429Z,99171.97
2023-01-10T15:04:03.127Z,99181.31
2023-01-10T15:07:16.940Z,99182.81
2023-01-10T15:10:31.049Z,99179.81
2023-01-10T15:13:51.891Z,99176.50
2023-01-10T15:17:06.414Z,99178.91
2023-01-10T15:20:17.919Z,99177.09
2023-01-10T15:23:35.906Z,99166.47
2023-01-10T15:26:46.060Z,99172.03
2023-01-10T15:29:56.993Z,99155.84
2023-01-10T15:33:14.320Z,99144.13
2023-01-10T15:36:29.507Z,99160.31
2023-01-10T15:39:41.766Z,99166.63
2023-01-10T15:42:52.005Z,99159.13
2023-01-10T15:46:03.805Z,99141.00
2023-01-10T15:49:25.232Z,99142.31
2023-01-10T15:52:35.458Z,99146.06
2023-01-10T15:55:48.214Z,99139.31
2023-01-10T15:59:00.136Z,99137.09
2023-01-10T16:02:22.964Z,99132.13
2023-01-10T16:05:34.319Z,99136.03
2023-01-10T16:08:49.884Z,99120.41
2023-01-10T16:12:10.814Z,99119.06
2023-01-10T16:15:23.293Z,99126.13
2023-01-10T16:18:33.273Z,99117.69
2023-01-10T16:21:47.740Z,99109.00
2023-01-10T16:24:57.634Z,99100.00
2023-01-10T16:28:10.083Z,99101.78
2023-01-10T16:31:20.074Z,99108.41
2023-01-10T16:34:33.992Z,99112.56
2023-01-10T16:37:45.318Z,99105.09
2023-01-10T16:40:58.948Z,99089.66
2023-01-10T16:44:08.371Z,99094.75
2023-01-10T16:47:18.402Z,99086.50
2023-01-10T16:50:28.829Z,99077.56
2023-01-10T16:53:40.346Z,99073.97
2023-01-10T16:56:51.077Z,99069.16
2023-01-10T17:00:01.095Z,99063.75
2023-01-10T17:03:16.461Z,99064.50
2023-01-10T17:06:26.660Z,99054.47
2023-01-10T17:09:37.974Z,99057.91
2023-01-10T17:12:48.316Z,99057.41
2023-01-10T17:15:58.595Z,99048.47
2023-01-10T17:19:09.678Z,99052.06
2023-01-10T17:22:19.942Z,99045.63
2023-01-10T17:25:31.221Z,99038.72
2023-01-10T17:28:41.809Z,99036.78
2023-01-10T17:31:51.937Z,99038.56
2023-01-10T17:35:02.020Z,99031.97
2023-01-10T17:38:13.429Z,99026.88
2023-01-10T17:41:24.685Z,99019.66
2023-01-10T17:44:34.581Z,99016.34
2023-01-10T17:47:44.579Z,99011.88
2023-01-10T17:50:58.400Z,98999.88
2023-01-10T17:54:09.123Z,99001.06
2023-01-10T17:57:20.351Z,99003.19
2023-01-10T18:00:30.655Z,99001.38
2023-01-10T18:03:40.841Z,98994.19
2023-01-10T18:06:52.410Z,98980.69
2023-01-10T18:10:02.377Z,98984.13
2023-01-10T18:13:14.994Z,98993.13
2023-01-10T18:16:27.178Z,98990.00
2023-01-10T18:19:37.775Z,98987.03
2023-01-10T18:22:58.612Z,98984.75
2023-01-10T18:26:10.810Z,98976.22
2023-01-10T18:29:22.102Z,98987.75
2023-01-10T18:32:32.748Z,98962.69
2023-01-10T18:35:42.914Z,98977.28
2023-01-10T18:38:53.406Z,98970.03
2023-01-10T18:42:03.469Z,98964.50
2023-01-10T18:45:14.891Z,98962.38
2023-01-10T18:48:25.935Z,98975.91
2023-01-10T18:51:36.085Z,98968.88
2023-01-10T18:54:47.543Z,98963.91
2023-01-10T18:57:57.703Z,98975.63
2023-01-10T19:01:11.842Z,98976.50
2023-01-10T19:04:21.937Z,98977.06
2023-01-10T19:07:31.837Z,98977.06
2023-01-10T19:11:03.671Z,98981.53
2023-01-10T19:14:13.843Z,98965.97
2023-01-10T19:17:26.006Z,98956.66
2023-01-10T19:20:36.004Z,98960.25
2023-01-10T19:23:47.742Z,98957.25
2023-01-10T19:26:57.926Z,98949.78
2023-01-10T19:30:10.042Z,98945.59
2023-01-10T19:33:21.661Z,98934.94
2023-01-10T19:36:34.645Z,98939.00
2023-01-10T19:39:44.730Z,98949.81
2023-01-10T19:42:54.938Z,98940.03
2023-01-10T19:46:08.898Z,98944.22
2023-01-10T19:49:20.725Z,98945.84
2023-01-10T19:52:30.776Z,98951.56
2023-01-10T19:55:40.854Z,98934.06
2023-01-10T19:58:51.752Z,98942.31
2023-01-10T20:02:02.404Z,98937.22
2023-01-10T20:05:13.840Z,98936.09
2023-01-10T20:08:23.975Z,98931.59
2023-01-10T20:11:38.039Z,98920.53
2023-01-10T20:14:49.386Z,98909.00
2023-01-10T20:17:59.255Z,98910.09
2023-01-10T20:21:12.861Z,98910.38
2023-01-10T20:24:23.151Z,98920.13
2023-01-10T20:27:33.126Z,98916.84
2023-01-10T20:30:43.210Z,98910.84
2023-01-10T20:33:53.278Z,98907.84
2023-01-10T20:37:04.716Z,98915.00
2023-01-10T20:40:15.079Z,98907.41
2023-01-10T20:43:25.428Z,98905.47
2023-01-10T20:46:36.789Z,98891.19
2023-01-10T20:49:47.099Z,98898.09
2023-01-10T20:52:58.972Z,98898.25
2023-01-10T20:56:12.551Z,98894.06
2023-01-10T20:59:24.532Z,98885.09
2023-01-10T21:02:36.029Z,98889.84
2023-01-10T21:05:50.573Z,98885.38
